Terminal Aerodrome Forecast
Issued by NWS

Home | Current Version | Previous Version | Text Only | Print | Product List | Glossary On
Versions: 1 2 3 4 5 6 7 8 9 10 11 12 13 14 15 16 17
000
FTUS44 KEPZ 230500 RRA
TAFDMN
TAF
KDMN 230545Z 2306/2406 26012KT P6SM BKN250
     FM231700 25012G22KT P6SM SCT250
     FM240300 28009KT P6SM FEW250=

USA.gov is the U.S. government's official web portal to all federal, state and local government web resources and services.